map of CBT home
CBT - Airport
Location
City:  Catumbela, Benguela, Angola
ICAO:FNCT
IATA:CBT

Details
Type:Airport (Aerodrome, Airfield)
Latitude:1228'45"S (-12.479166)
Longitude:1329'13"E (13.486944)
Variation:4.87W (WMM2015 magnetic declination)
0.18 annual change
Runways:1
Longest:12139 × 98 ft (3700 × 30 m)

Time
Time Zone:UTC+1
Local Time:

Weather
METAR:FNCT 121800Z 26008KT 9999 BKN017 24/21 Q1012
TAF:FNCT 122300Z 1300/1312 24006KT 8000 FEW015 BKN025
TEMPO 1304/1308 VRB03KT 5000 -TSRA SCT018 OVC023
BECMG 1310/1312 32010KT

Related Locations
Nearby:
Farthest:PLPA: 11890 mi / 19136 km
Palmyra Island Atoll [Palmyra Airport (Cooper)], UM

Find:

   beyond  
but within

Other Information
Maps:
NOTAMs:
Links:
Sources:

  
  • flag of Angola
  

Sectional Chart

Flight Planning
at skyvector.com

Satellite Image

Google Maps Satellite view

 

Copyright © 2004-2018 Karl L. Swartz. All rights reserved.
The Great Circle Mapper name and logo are trademarks of the Great Circle Mapper.
All other trademarks mentioned herein belong to their respective owners.
Please see credits for attibutions and further copyright information.

  Follow gcmap on Facebook Follow gcmap on Twitter Follow gcmap on Google+ GCmap on LinkedIn

hCard Microformat

Geo Microformat